createdAt,value
2022-12-15T00:02:19.468Z,76474.13
2022-12-15T00:05:08.053Z,76476.22
2022-12-15T00:07:53.649Z,76469.97
2022-12-15T00:10:39.487Z,76469.97
2022-12-15T00:13:29.872Z,76478.28
2022-12-15T00:16:16.377Z,76469.97
2022-12-15T00:19:01.987Z,76469.97
2022-12-15T00:21:49.302Z,76478.28
2022-12-15T00:24:35.130Z,76478.28
2022-12-15T00:27:20.996Z,76469.97
2022-12-15T00:30:06.811Z,76478.28
2022-12-15T00:32:52.402Z,76478.28
2022-12-15T00:35:37.589Z,76474.13
2022-12-15T00:38:30.484Z,76482.44
2022-12-15T00:40:59.925Z,76492.84
2022-12-15T00:43:29.410Z,76499.09
2022-12-15T00:46:15.538Z,76497.00
2022-12-15T00:48:45.029Z,76503.25
2022-12-15T00:51:12.303Z,76515.72
2022-12-15T00:53:59.472Z,76513.63
2022-12-15T00:56:45.234Z,76515.72
2022-12-15T00:59:31.623Z,76515.72
2022-12-15T01:02:17.504Z,76526.13
2022-12-15T01:05:03.307Z,76528.19
2022-12-15T01:07:49.473Z,76528.19
2022-12-15T01:10:38.040Z,76534.44
2022-12-15T01:13:24.244Z,76540.66
2022-12-15T01:16:10.506Z,76549.00
2022-12-15T01:18:56.180Z,76555.22
2022-12-15T01:21:25.508Z,76563.53
2022-12-15T01:23:54.266Z,76565.63
2022-12-15T01:26:23.722Z,76551.06
2022-12-15T01:28:51.489Z,76553.16
2022-12-15T01:31:19.900Z,76555.22
2022-12-15T01:33:47.805Z,76557.31
2022-12-15T01:36:15.877Z,76559.38
2022-12-15T01:38:45.088Z,76565.63
2022-12-15T01:41:15.464Z,76559.38
2022-12-15T01:43:44.957Z,76549.00
2022-12-15T01:46:18.629Z,76544.84
2022-12-15T01:48:50.152Z,76540.66
2022-12-15T01:51:26.950Z,76540.66
2022-12-15T01:53:59.551Z,76544.84
2022-12-15T01:56:35.400Z,76546.91
2022-12-15T01:59:10.151Z,76546.91
2022-12-15T02:01:40.272Z,76540.66
2022-12-15T02:04:09.282Z,76526.13
2022-12-15T02:06:37.664Z,76524.03
2022-12-15T02:09:07.281Z,76515.72
2022-12-15T02:11:50.762Z,76519.88
2022-12-15T02:14:29.474Z,76524.03
2022-12-15T02:17:11.093Z,76524.03
2022-12-15T02:20:14.723Z,76515.72
2022-12-15T02:23:01.632Z,76511.56
2022-12-15T02:25:45.978Z,76509.47
2022-12-15T02:28:32.420Z,76521.97
2022-12-15T02:31:23.504Z,76524.03
2022-12-15T02:33:55.953Z,76528.19
2022-12-15T02:36:26.627Z,76540.66
2022-12-15T02:38:54.855Z,76532.34
2022-12-15T02:41:39.019Z,76532.34
2022-12-15T02:44:13.416Z,76528.19
2022-12-15T02:47:15.174Z,76524.03
2022-12-15T02:49:52.130Z,76513.63
2022-12-15T02:52:36.095Z,76519.88
2022-12-15T02:55:14.317Z,76507.41
2022-12-15T02:57:53.440Z,76507.41
2022-12-15T03:00:22.666Z,76503.25
2022-12-15T03:02:55.754Z,76494.94
2022-12-15T03:05:25.795Z,76494.94
2022-12-15T03:07:55.718Z,76501.16
2022-12-15T03:10:26.509Z,76503.25
2022-12-15T03:12:55.478Z,76501.16
2022-12-15T03:15:23.777Z,76505.31
2022-12-15T03:17:52.967Z,76507.41
2022-12-15T03:20:21.212Z,76507.41
2022-12-15T03:22:48.968Z,76507.41
2022-12-15T03:25:17.286Z,76497.00
2022-12-15T03:27:47.301Z,76503.25
2022-12-15T03:30:15.344Z,76499.09
2022-12-15T03:32:43.179Z,76497.00
2022-12-15T03:35:13.445Z,76492.84
2022-12-15T03:37:41.328Z,76482.44
2022-12-15T03:40:11.332Z,76476.22
2022-12-15T03:42:51.229Z,76486.63
2022-12-15T03:45:20.745Z,76484.53
2022-12-15T03:47:49.643Z,76492.84
2022-12-15T03:50:21.331Z,76488.69
2022-12-15T03:52:51.466Z,76486.63
2022-12-15T03:55:20.071Z,76486.63
2022-12-15T03:57:47.974Z,76465.81
2022-12-15T04:00:18.485Z,76434.63
2022-12-15T04:02:47.303Z,76428.41
2022-12-15T04:05:23.391Z,76445.03
2022-12-15T04:07:50.987Z,76449.19
2022-12-15T04:10:19.010Z,76461.66
2022-12-15T04:12:46.972Z,76469.97
2022-12-15T04:15:15.580Z,76486.63
2022-12-15T04:17:43.943Z,76476.22
2022-12-15T04:20:11.821Z,76478.28
2022-12-15T04:22:42.631Z,76486.63
2022-12-15T04:25:30.949Z,76461.66
2022-12-15T04:28:16.717Z,76451.28
2022-12-15T04:31:04.962Z,76459.59
2022-12-15T04:33:50.640Z,76436.72
2022-12-15T04:36:36.480Z,76436.72
2022-12-15T04:39:24.428Z,76447.09
2022-12-15T04:42:11.700Z,76449.19
2022-12-15T04:44:57.723Z,76432.56
2022-12-15T04:47:43.465Z,76445.03
2022-12-15T04:50:28.765Z,76465.81
2022-12-15T04:53:14.507Z,76455.44
2022-12-15T04:56:01.487Z,76451.28
2022-12-15T04:58:47.467Z,76472.06
2022-12-15T05:01:33.017Z,76469.97
2022-12-15T05:04:18.774Z,76476.22
2022-12-15T05:07:04.512Z,76488.69
2022-12-15T05:09:50.315Z,76482.44
2022-12-15T05:12:37.041Z,76482.44
2022-12-15T05:15:23.382Z,76478.28
2022-12-15T05:18:08.918Z,76480.38
2022-12-15T05:20:54.678Z,76494.94
2022-12-15T05:23:40.391Z,76497.00
2022-12-15T05:26:26.112Z,76503.25
2022-12-15T05:29:12.985Z,76494.94
2022-12-15T05:31:51.814Z,76503.25
2022-12-15T05:34:24.247Z,76519.88
2022-12-15T05:36:52.220Z,76513.63
2022-12-15T05:39:21.112Z,76507.41
2022-12-15T05:41:49.231Z,76513.63
2022-12-15T05:44:19.001Z,76524.03
2022-12-15T05:46:47.739Z,76499.09
2022-12-15T05:49:17.505Z,76511.56
2022-12-15T05:51:46.877Z,76515.72
2022-12-15T05:54:18.521Z,76517.81
2022-12-15T05:56:50.216Z,76524.03
2022-12-15T05:59:20.491Z,76521.97
2022-12-15T06:01:48.909Z,76515.72
2022-12-15T06:04:16.818Z,76511.56
2022-12-15T06:06:45.053Z,76511.56
2022-12-15T06:09:13.067Z,76515.72
2022-12-15T06:11:41.103Z,76519.88
2022-12-15T06:14:09.575Z,76538.59
2022-12-15T06:16:49.795Z,76536.50
2022-12-15T06:19:19.581Z,76540.66
2022-12-15T06:21:47.765Z,76536.50
2022-12-15T06:24:15.746Z,76536.50
2022-12-15T06:26:43.828Z,76542.75
2022-12-15T06:29:13.170Z,76549.00
2022-12-15T06:31:43.590Z,76555.22
2022-12-15T06:34:14.655Z,76557.31
2022-12-15T06:36:43.965Z,76561.47
2022-12-15T06:39:13.703Z,76567.69
2022-12-15T06:41:42.308Z,76557.31
2022-12-15T06:44:14.097Z,76561.47
2022-12-15T06:46:45.591Z,76563.53
2022-12-15T06:49:14.208Z,76561.47
2022-12-15T06:51:43.906Z,76565.63
2022-12-15T06:54:12.132Z,76578.09
2022-12-15T06:56:40.795Z,76576.00
2022-12-15T06:59:09.001Z,76569.78
2022-12-15T07:01:37.259Z,76559.38
2022-12-15T07:04:07.099Z,76557.31
2022-12-15T07:06:37.366Z,76555.22
2022-12-15T07:09:07.798Z,76567.69
2022-12-15T07:11:36.804Z,76571.84
2022-12-15T07:14:05.739Z,76598.88
2022-12-15T07:16:34.267Z,76586.41
2022-12-15T07:19:02.525Z,76578.09
2022-12-15T07:21:33.173Z,76586.41
2022-12-15T07:24:01.862Z,76594.72
2022-12-15T07:26:30.777Z,76578.09
2022-12-15T07:28:58.610Z,76603.03
2022-12-15T07:31:27.162Z,76613.44
2022-12-15T07:33:55.387Z,76607.22
2022-12-15T07:36:23.450Z,76611.38
2022-12-15T07:38:52.633Z,76619.69
2022-12-15T07:41:21.378Z,76615.53
2022-12-15T07:43:49.436Z,76611.38
2022-12-15T07:46:17.801Z,76630.06
2022-12-15T07:48:50.317Z,76636.31
2022-12-15T07:51:21.081Z,76648.78
2022-12-15T07:53:50.888Z,76652.94
2022-12-15T07:56:21.404Z,76663.34
2022-12-15T07:58:50.482Z,76652.94
2022-12-15T08:01:19.012Z,76661.25
2022-12-15T08:03:48.154Z,76659.19
2022-12-15T08:06:16.907Z,76684.13
2022-12-15T08:08:50.407Z,76677.91
2022-12-15T08:11:22.778Z,76702.84
2022-12-15T08:14:10.396Z,76690.38
2022-12-15T08:16:39.430Z,76686.22
2022-12-15T08:19:08.717Z,76686.22
2022-12-15T08:21:36.904Z,76696.63
2022-12-15T08:24:05.355Z,76702.84
2022-12-15T08:26:35.645Z,76707.00
2022-12-15T08:29:40.633Z,76725.72
2022-12-15T08:31:53.524Z,76731.97
2022-12-15T08:34:21.489Z,76744.44
2022-12-15T08:36:49.755Z,76748.59
2022-12-15T08:39:17.667Z,76748.59
2022-12-15T08:41:47.167Z,76744.44
2022-12-15T08:44:16.713Z,76742.34
2022-12-15T08:46:45.131Z,76744.44
2022-12-15T08:49:17.954Z,76740.28
2022-12-15T08:51:50.708Z,76740.28
2022-12-15T08:54:19.503Z,76740.28
2022-12-15T08:56:49.029Z,76744.44
2022-12-15T08:59:17.227Z,76748.59
2022-12-15T09:01:45.639Z,76744.44
2022-12-15T09:04:13.544Z,76740.28
2022-12-15T09:06:41.809Z,76748.59
2022-12-15T09:09:12.374Z,76746.50
2022-12-15T09:11:40.347Z,76740.28
2022-12-15T09:14:09.753Z,76765.22
2022-12-15T09:16:37.905Z,76769.38
2022-12-15T09:19:05.859Z,76763.16
2022-12-15T09:21:34.137Z,76744.44
2022-12-15T09:24:03.002Z,76750.66
2022-12-15T09:26:34.071Z,76748.59
2022-12-15T09:29:02.828Z,76752.75
2022-12-15T09:31:34.459Z,76754.84
2022-12-15T09:34:02.432Z,76761.06
2022-12-15T09:36:32.609Z,76756.91
2022-12-15T09:39:02.481Z,76756.91
2022-12-15T09:41:33.109Z,76763.16
2022-12-15T09:44:03.833Z,76767.31
2022-12-15T09:46:46.521Z,76773.53
2022-12-15T09:49:37.624Z,76763.16
2022-12-15T09:52:11.687Z,76790.19
2022-12-15T09:54:42.324Z,76781.88
2022-12-15T09:57:20.936Z,76781.88
2022-12-15T10:00:11.447Z,76783.94
2022-12-15T10:03:23.698Z,76756.91
2022-12-15T10:06:19.227Z,76769.38
2022-12-15T10:08:53.981Z,76777.69
2022-12-15T10:11:36.892Z,76777.69
2022-12-15T10:14:13.026Z,76794.34
2022-12-15T10:16:51.619Z,76783.94
2022-12-15T10:19:29.774Z,76777.69
2022-12-15T10:21:58.516Z,76777.69
2022-12-15T10:27:49.696Z,76773.53
2022-12-15T10:30:18.305Z,76775.63
2022-12-15T10:32:51.662Z,76761.06
2022-12-15T10:35:24.011Z,76756.91
2022-12-15T10:37:52.009Z,76769.38
2022-12-15T10:40:41.180Z,76759.00
2022-12-15T10:43:15.265Z,76756.91
2022-12-15T10:45:43.628Z,76742.34
2022-12-15T10:48:21.140Z,76742.34
2022-12-15T10:50:50.734Z,76736.13
2022-12-15T10:53:39.739Z,76740.28
2022-12-15T10:56:09.203Z,76752.75
2022-12-15T10:58:50.169Z,76744.44
2022-12-15T11:01:21.179Z,76719.47
2022-12-15T11:03:52.566Z,76711.16
2022-12-15T11:06:24.961Z,76719.47
2022-12-15T11:08:56.686Z,76736.13
2022-12-15T11:11:45.692Z,76727.81
2022-12-15T11:14:16.690Z,76740.28
2022-12-15T11:16:52.220Z,76759.00
2022-12-15T11:19:32.404Z,76761.06
2022-12-15T11:22:07.518Z,76750.66
2022-12-15T11:24:41.020Z,76736.13
2022-12-15T11:27:19.899Z,76711.16
2022-12-15T11:29:58.526Z,76709.09
2022-12-15T11:32:29.777Z,76715.31
2022-12-15T11:34:57.978Z,76719.47
2022-12-15T11:37:46.227Z,76711.16
2022-12-15T11:40:28.250Z,76715.31
2022-12-15T11:43:18.484Z,76713.25
2022-12-15T11:45:56.341Z,76711.16
2022-12-15T11:48:33.441Z,76707.00
2022-12-15T11:51:06.778Z,76715.31
2022-12-15T11:53:57.185Z,76709.09
2022-12-15T11:56:32.243Z,76711.16
2022-12-15T11:59:27.336Z,76717.41
2022-12-15T12:02:14.183Z,76713.25
2022-12-15T12:04:56.918Z,76707.00
2022-12-15T12:07:38.513Z,76698.69
2022-12-15T12:10:25.106Z,76702.84
2022-12-15T12:13:01.618Z,76707.00
2022-12-15T12:15:37.062Z,76725.72
2022-12-15T12:18:12.445Z,76727.81
2022-12-15T12:20:46.587Z,76761.06
2022-12-15T12:23:18.476Z,76744.44
2022-12-15T12:26:03.028Z,76734.03
2022-12-15T12:28:42.884Z,76740.28
2022-12-15T12:31:22.145Z,76744.44
2022-12-15T12:33:55.380Z,76748.59
2022-12-15T12:36:23.553Z,76740.28
2022-12-15T12:38:55.942Z,76719.47
2022-12-15T12:41:33.319Z,76719.47
2022-12-15T12:44:05.748Z,76715.31
2022-12-15T12:46:40.202Z,76721.56
2022-12-15T12:49:13.680Z,76719.47
2022-12-15T12:51:43.395Z,76727.81
2022-12-15T12:54:41.934Z,76723.66
2022-12-15T13:00:27.942Z,76736.13
2022-12-15T13:03:16.296Z,76731.97
2022-12-15T13:05:46.646Z,76736.13
2022-12-15T13:08:29.046Z,76723.66
2022-12-15T13:10:57.245Z,76713.25
2022-12-15T13:13:51.117Z,76707.00
2022-12-15T13:16:25.217Z,76727.81
2022-12-15T13:18:58.552Z,76711.16
2022-12-15T13:21:53.001Z,76702.84
2022-12-15T13:24:32.948Z,76702.84
2022-12-15T13:27:15.326Z,76704.94
2022-12-15T13:30:01.049Z,76711.16
2022-12-15T13:32:38.784Z,76704.94
2022-12-15T13:35:22.240Z,76682.06
2022-12-15T13:37:52.941Z,76690.38
2022-12-15T13:40:50.676Z,76709.09
2022-12-15T13:43:44.127Z,76727.81
2022-12-15T13:46:21.459Z,76736.13
2022-12-15T13:48:56.755Z,76738.19
2022-12-15T13:51:31.274Z,76738.19
2022-12-15T13:54:04.091Z,76734.03
2022-12-15T13:56:49.464Z,76740.28
2022-12-15T13:59:32.022Z,76746.50
2022-12-15T14:02:00.916Z,76756.91
2022-12-15T14:04:30.232Z,76761.06
2022-12-15T14:07:01.697Z,76765.22
2022-12-15T14:09:33.654Z,76777.69
2022-12-15T14:12:03.529Z,76777.69
2022-12-15T14:14:34.108Z,76779.78
2022-12-15T14:17:03.955Z,76796.41
2022-12-15T14:19:41.376Z,76798.50
2022-12-15T14:22:28.543Z,76802.66
2022-12-15T14:25:03.186Z,76806.81
2022-12-15T14:27:33.066Z,76794.34
2022-12-15T14:30:13.683Z,76798.50
2022-12-15T14:32:44.548Z,76810.97
2022-12-15T14:35:18.716Z,76823.44
2022-12-15T14:37:47.053Z,76815.13
2022-12-15T14:40:17.636Z,76827.59
2022-12-15T14:42:47.205Z,76840.09
2022-12-15T14:45:21.432Z,76840.09
2022-12-15T14:50:46.908Z,76844.25
2022-12-15T14:53:18.148Z,76844.25
2022-12-15T14:55:47.069Z,76842.16
2022-12-15T14:58:31.430Z,76858.78
2022-12-15T15:01:00.126Z,76856.72
2022-12-15T15:03:11.192Z,76777.69
2022-12-15T15:03:11.972Z,76840.09
2022-12-15T15:03:37.749Z,76860.88
2022-12-15T15:06:18.673Z,76852.56
2022-12-15T15:08:48.958Z,76852.56
2022-12-15T15:11:29.298Z,76860.88
2022-12-15T15:14:00.401Z,76879.59
2022-12-15T15:16:28.629Z,76877.50
2022-12-15T15:18:58.156Z,76887.91
2022-12-15T15:21:30.909Z,76885.84
2022-12-15T15:24:01.080Z,76881.66
2022-12-15T15:26:29.299Z,76869.19
2022-12-15T15:28:58.138Z,76877.50
2022-12-15T15:31:41.559Z,76875.44
2022-12-15T15:34:13.581Z,76875.44
2022-12-15T15:36:42.930Z,76877.50
2022-12-15T15:39:15.140Z,76873.34
2022-12-15T15:41:43.159Z,76877.50
2022-12-15T15:44:14.431Z,76881.66
2022-12-15T15:46:47.593Z,76877.50
2022-12-15T15:49:20.572Z,76885.84
2022-12-15T15:51:50.203Z,76890.00
2022-12-15T15:54:24.117Z,76898.31
2022-12-15T15:56:52.111Z,76890.00
2022-12-15T15:59:21.872Z,76875.44
2022-12-15T16:01:54.627Z,76869.19
2022-12-15T16:04:23.340Z,76877.50
2022-12-15T16:06:53.509Z,76881.66
2022-12-15T16:09:21.718Z,76885.84
2022-12-15T16:11:50.667Z,76871.28
2022-12-15T16:14:19.452Z,76873.34
2022-12-15T16:16:47.203Z,76871.28
2022-12-15T16:19:15.655Z,76873.34
2022-12-15T16:21:44.240Z,76862.97
2022-12-15T16:24:17.877Z,76852.56
2022-12-15T16:26:49.752Z,76856.72
2022-12-15T16:29:20.051Z,76869.19
2022-12-15T16:31:48.692Z,76879.59
2022-12-15T16:34:19.064Z,76881.66
2022-12-15T16:36:47.074Z,76881.66
2022-12-15T16:39:29.115Z,76873.34
2022-12-15T16:41:57.674Z,76873.34
2022-12-15T16:44:27.522Z,76860.88
2022-12-15T16:46:55.445Z,76869.19
2022-12-15T16:49:23.762Z,76867.13
2022-12-15T16:51:54.521Z,76860.88
2022-12-15T16:54:26.270Z,76852.56
2022-12-15T16:56:57.010Z,76852.56
2022-12-15T16:59:35.581Z,76856.72
2022-12-15T17:02:24.722Z,76856.72
2022-12-15T17:04:55.173Z,76852.56
2022-12-15T17:07:25.027Z,76850.47
2022-12-15T17:09:53.026Z,76860.88
2022-12-15T17:12:22.219Z,76860.88
2022-12-15T17:14:50.612Z,76869.19
2022-12-15T17:17:20.344Z,76881.66
2022-12-15T17:20:19.751Z,76877.50
2022-12-15T17:22:37.788Z,76885.84
2022-12-15T17:25:06.818Z,76890.00
2022-12-15T17:27:35.900Z,76873.34
2022-12-15T17:30:04.518Z,76869.19
2022-12-15T17:32:32.348Z,76875.44
2022-12-15T17:35:00.511Z,76854.63
2022-12-15T17:37:34.915Z,76854.63
2022-12-15T17:40:04.516Z,76835.94
2022-12-15T17:42:32.474Z,76831.75
2022-12-15T17:45:01.881Z,76825.53
2022-12-15T17:47:30.511Z,76838.00
2022-12-15T17:49:59.124Z,76844.25
2022-12-15T17:52:29.273Z,76844.25
2022-12-15T17:54:58.348Z,76852.56
2022-12-15T17:57:26.500Z,76850.47
2022-12-15T17:59:55.079Z,76840.09
2022-12-15T18:02:24.716Z,76852.56
2022-12-15T18:04:55.173Z,76852.56
2022-12-15T18:07:24.697Z,76842.16
2022-12-15T18:09:53.512Z,76848.41
2022-12-15T18:12:23.945Z,76844.25
2022-12-15T18:14:52.004Z,76860.88
2022-12-15T18:17:20.156Z,76856.72
2022-12-15T18:19:49.938Z,76865.03
2022-12-15T18:22:22.591Z,76854.63
2022-12-15T18:24:52.832Z,76885.84
2022-12-15T18:27:23.866Z,76894.16
2022-12-15T18:29:52.488Z,76885.84
2022-12-15T18:32:22.855Z,76883.75
2022-12-15T18:34:53.646Z,76869.19
2022-12-15T18:37:24.609Z,76881.66
2022-12-15T18:39:52.735Z,76890.00
2022-12-15T18:42:22.841Z,76902.47
2022-12-15T18:44:53.347Z,76896.22
2022-12-15T18:47:24.878Z,76894.16
2022-12-15T18:49:54.769Z,76898.31
2022-12-15T18:52:30.061Z,76898.31
2022-12-15T18:55:02.070Z,76887.91
2022-12-15T18:57:32.332Z,76881.66
2022-12-15T19:00:04.204Z,76873.34
2022-12-15T19:02:32.361Z,76856.72
2022-12-15T19:05:01.992Z,76860.88
2022-12-15T19:07:29.891Z,76852.56
2022-12-15T19:09:58.260Z,76848.41
2022-12-15T19:12:26.142Z,76852.56
2022-12-15T19:14:55.210Z,76844.25
2022-12-15T19:17:42.799Z,76844.25
2022-12-15T19:20:35.591Z,76862.97
2022-12-15T19:23:03.459Z,76856.72
2022-12-15T19:25:32.135Z,76860.88
2022-12-15T19:28:01.212Z,76858.78
2022-12-15T19:30:36.991Z,76873.34
2022-12-15T19:33:07.861Z,76871.28
2022-12-15T19:35:38.755Z,76877.50
2022-12-15T19:38:08.201Z,76890.00
2022-12-15T19:40:38.465Z,76890.00
2022-12-15T19:43:06.629Z,76885.84
2022-12-15T19:45:34.875Z,76883.75
2022-12-15T19:48:02.641Z,76885.84
2022-12-15T19:50:36.344Z,76879.59
2022-12-15T19:53:12.107Z,76883.75
2022-12-15T19:55:40.765Z,76885.84
2022-12-15T19:58:29.673Z,76877.50
2022-12-15T20:00:59.538Z,76854.63
2022-12-15T20:03:29.334Z,76865.03
2022-12-15T20:05:59.265Z,76869.19
2022-12-15T20:08:31.144Z,76873.34
2022-12-15T20:10:59.312Z,76873.34
2022-12-15T20:13:27.351Z,76867.13
2022-12-15T20:15:56.156Z,76877.50
2022-12-15T20:18:24.024Z,76865.03
2022-12-15T20:20:52.672Z,76848.41
2022-12-15T20:23:23.650Z,76860.88
2022-12-15T20:25:54.380Z,76840.09
2022-12-15T20:28:24.388Z,76831.75
2022-12-15T20:30:53.100Z,76831.75
2022-12-15T20:33:21.082Z,76833.84
2022-12-15T20:35:50.661Z,76850.47
2022-12-15T20:38:27.556Z,76840.09
2022-12-15T20:40:57.944Z,76848.41
2022-12-15T20:43:27.601Z,76848.41
2022-12-15T20:46:03.628Z,76844.25
2022-12-15T20:48:34.585Z,76831.75
2022-12-15T20:51:06.006Z,76831.75
2022-12-15T20:53:37.613Z,76840.09
2022-12-15T20:56:08.064Z,76848.41
2022-12-15T20:58:41.974Z,76856.72
2022-12-15T21:01:19.938Z,76865.03
2022-12-15T21:03:50.197Z,76852.56
2022-12-15T21:06:20.498Z,76867.13
2022-12-15T21:08:49.334Z,76852.56
2022-12-15T21:11:21.143Z,76852.56
2022-12-15T21:13:50.638Z,76848.41
2022-12-15T21:16:21.495Z,76852.56
2022-12-15T21:19:18.640Z,76848.41
2022-12-15T21:21:43.118Z,76842.16
2022-12-15T21:24:16.646Z,76840.09
2022-12-15T21:26:46.914Z,76831.75
2022-12-15T21:29:17.489Z,76835.94
2022-12-15T21:31:46.370Z,76829.69
2022-12-15T21:34:15.288Z,76833.84
2022-12-15T21:36:45.993Z,76838.00
2022-12-15T21:39:21.240Z,76835.94
2022-12-15T21:41:50.840Z,76831.75
2022-12-15T21:44:19.692Z,76844.25
2022-12-15T21:46:47.803Z,76823.44
2022-12-15T21:49:18.004Z,76835.94
2022-12-15T21:51:48.149Z,76831.75
2022-12-15T21:54:19.220Z,76844.25
2022-12-15T21:56:49.467Z,76831.75
2022-12-15T21:59:25.646Z,76825.53
2022-12-15T22:01:55.184Z,76840.09
2022-12-15T22:04:26.623Z,76854.63
2022-12-15T22:06:54.980Z,76840.09
2022-12-15T22:09:22.739Z,76844.25
2022-12-15T22:11:54.067Z,76844.25
2022-12-15T22:14:27.025Z,76846.31
2022-12-15T22:16:55.676Z,76842.16
2022-12-15T22:19:24.072Z,76844.25
2022-12-15T22:21:52.316Z,76840.09
2022-12-15T22:24:20.788Z,76846.31
2022-12-15T22:26:49.034Z,76844.25
2022-12-15T22:29:20.242Z,76856.72
2022-12-15T22:31:50.599Z,76860.88
2022-12-15T22:34:21.349Z,76867.13
2022-12-15T22:36:49.966Z,76858.78
2022-12-15T22:39:18.906Z,76862.97
2022-12-15T22:41:49.848Z,76869.19
2022-12-15T22:44:20.827Z,76852.56
2022-12-15T22:46:51.733Z,76852.56
2022-12-15T22:49:23.507Z,76833.84
2022-12-15T22:51:51.987Z,76827.59
2022-12-15T22:54:20.949Z,76844.25
2022-12-15T22:56:52.407Z,76838.00
2022-12-15T22:59:25.879Z,76854.63
2022-12-15T23:01:56.105Z,76848.41
2022-12-15T23:04:25.156Z,76846.31
2022-12-15T23:06:53.243Z,76844.25
2022-12-15T23:09:22.861Z,76842.16
2022-12-15T23:11:50.007Z,76840.09
2022-12-15T23:14:19.314Z,76831.75
2022-12-15T23:16:46.672Z,76835.94
2022-12-15T23:19:23.837Z,76825.53
2022-12-15T23:21:52.495Z,76835.94
2022-12-15T23:24:20.365Z,76825.53
2022-12-15T23:26:48.361Z,76823.44
2022-12-15T23:29:16.299Z,76835.94
2022-12-15T23:31:44.468Z,76831.75
2022-12-15T23:34:12.335Z,76835.94
2022-12-15T23:36:41.924Z,76827.59
2022-12-15T23:39:09.899Z,76846.31
2022-12-15T23:41:37.888Z,76850.47
2022-12-15T23:44:06.331Z,76840.09
2022-12-15T23:46:34.784Z,76838.00
2022-12-15T23:49:02.541Z,76831.75
2022-12-15T23:51:30.557Z,76848.41
2022-12-15T23:53:59.777Z,76844.25
2022-12-15T23:56:27.924Z,76844.25
2022-12-15T23:58:57.835Z,76842.16
